Time;durP1;ratioP1;P1;durP2;ratioP2;P2;SDS_P1;SDS_P2;PMS_P1;PMS_P2;Temp;Humidity;BMP_temperature;BMP_pressure;BME280_temperature;BME280_humidity;BME280_pressure;Samples;Min_cycle;Max_cycle;Signal;HPM_P1;HPM_P2
2022/10/06 00:00:48;;;;;;;3.23;2.40;;;18.50;84.20;;;18.96;52.14;99436.50;4972309;28;124560;-73
2022/10/06 00:03:16;;;;;;;2.80;2.37;;;18.50;84.30;;;18.94;52.36;99426.84;4985292;28;123766;-77
2022/10/06 00:05:43;;;;;;;2.03;1.63;;;18.50;84.50;;;18.92;52.42;99435.59;4988745;28;119392;-74
2022/10/06 00:08:10;;;;;;;4.50;2.10;;;18.50;84.60;;;18.91;52.42;99438.75;4974692;28;119019;-75
2022/10/06 00:10:37;;;;;;;4.93;2.10;;;18.50;84.70;;;18.88;52.36;99442.25;4986752;28;124666;-75
2022/10/06 00:13:03;;;;;;;2.97;1.70;;;18.50;84.70;;;18.86;52.22;99437.03;4974345;28;123514;-75
2022/10/06 00:15:31;;;;;;;3.97;2.03;;;18.50;84.70;;;18.85;52.09;99440.97;4983655;28;119312;-74
2022/10/06 00:17:58;;;;;;;3.60;2.43;;;18.50;84.70;;;18.85;52.10;99440.16;4975226;28;119479;-75
2022/10/06 00:20:26;;;;;;;4.20;2.13;;;18.40;84.60;;;18.84;52.01;99444.13;4969408;28;124035;-74
2022/10/06 00:22:53;;;;;;;2.97;2.10;;;18.40;84.70;;;18.85;52.24;99451.34;4969343;28;123641;-75
2022/10/06 00:25:22;;;;;;;3.63;2.03;;;18.40;84.70;;;18.82;52.29;99446.47;4963974;28;119260;-74
2022/10/06 00:27:51;;;;;;;2.37;1.90;;;18.40;84.90;;;18.82;52.36;99449.28;4971015;28;118967;-75
2022/10/06 00:30:24;;;;;;;2.60;2.20;;;18.40;85.00;;;18.81;52.38;99445.66;4983194;28;124057;-76
2022/10/06 00:32:56;;;;;;;4.10;2.00;;;18.40;85.10;;;18.80;52.32;99457.19;4976891;28;123664;-74
2022/10/06 00:35:25;;;;;;;2.83;2.33;;;18.40;85.20;;;18.78;52.49;99457.56;4980506;28;120589;-76
2022/10/06 00:37:52;;;;;;;3.03;2.00;;;18.40;85.30;;;18.77;52.48;99462.31;4976966;28;119937;-75
2022/10/06 00:40:20;;;;;;;3.00;2.03;;;18.30;85.30;;;18.76;52.56;99471.09;4981394;28;125061;-76
2022/10/06 00:43:03;;;;;;;3.20;2.17;;;20.50;87.50;;;18.75;52.72;99473.09;4981034;28;123536;-75
2022/10/06 00:45:43;;;;;;;2.67;1.83;;;18.30;85.50;;;18.73;52.33;99466.16;4977466;28;119921;-76
2022/10/06 00:48:18;;;;;;;4.80;2.10;;;18.30;85.60;;;18.72;52.66;99475.72;4984305;28;119090;-75
2022/10/06 00:50:45;;;;;;;2.63;1.97;;;18.30;85.70;;;18.70;52.60;99481.69;4975340;28;124538;-74
2022/10/06 00:53:13;;;;;;;3.73;2.13;;;18.30;85.70;;;18.69;52.39;99480.03;4975169;28;125062;-78
2022/10/06 00:55:40;;;;;;;2.80;2.10;;;18.30;85.80;;;18.69;52.61;99488.44;4986947;28;119199;-77
2022/10/06 00:58:08;;;;;;;2.53;2.30;;;18.20;85.70;;;18.69;52.31;99485.63;4975987;28;119313;-77
2022/10/06 01:00:35;;;;;;;2.33;1.77;;;18.50;86.00;;;18.69;52.59;99491.22;4976618;28;123977;-77
2022/10/06 01:03:18;;;;;;;3.07;2.10;;;18.20;85.70;;;18.69;52.46;99482.00;4978172;28;123739;-77
2022/10/06 01:05:49;;;;;;;7.50;2.53;;;18.20;85.70;;;18.69;52.75;99487.63;4971933;28;119016;-77
2022/10/06 01:08:17;;;;;;;2.80;2.27;;;18.20;85.80;;;18.68;52.23;99492.41;4982027;28;118598;-77
2022/10/06 01:10:43;;;;;;;3.97;2.60;;;18.20;85.80;;;18.69;52.39;99493.22;4980326;28;124078;-74
2022/10/06 01:13:12;;;;;;;4.07;2.40;;;18.20;85.70;;;18.70;52.21;99494.88;4984255;28;124287;-75
2022/10/06 01:15:51;;;;;;;2.87;1.97;;;18.20;85.70;;;18.70;52.31;99494.88;4981651;28;119325;-76
2022/10/06 01:18:20;;;;;;;2.77;2.13;;;18.20;85.70;;;18.68;52.24;99503.59;4981210;28;118940;-74
2022/10/06 01:20:59;;;;;;;3.07;2.20;;;18.20;85.70;;;18.68;52.41;99502.78;4969956;28;123832;-73
2022/10/06 01:23:26;;;;;;;2.53;2.00;;;18.40;85.90;;;18.66;52.48;99500.31;4979582;28;123789;-73
2022/10/06 01:25:53;;;;;;;2.70;2.10;;;18.20;85.90;;;18.66;52.48;99499.50;4980242;28;120160;-74
2022/10/06 01:28:20;;;;;;;4.60;1.80;;;18.20;85.80;;;18.66;52.31;99502.31;4981390;28;119960;-74
2022/10/06 01:30:53;;;;;;;2.53;2.10;;;18.20;85.70;;;18.63;52.31;99503.00;4984688;28;124049;-74
2022/10/06 01:33:21;;;;;;;2.50;2.07;;;18.20;85.70;;;18.61;52.51;99508.13;4981110;28;123770;-74
2022/10/06 01:35:50;;;;;;;2.80;2.00;;;18.20;85.80;;;18.60;52.39;99512.13;4983282;28;119594;-74
2022/10/06 01:38:18;;;;;;;3.40;1.80;;;18.20;85.80;;;18.57;52.42;99513.63;4985162;28;119013;-76
2022/10/06 01:40:45;;;;;;;2.60;1.80;;;18.10;85.80;;;18.56;52.54;99506.38;4974761;28;125244;-74
2022/10/06 01:43:11;;;;;;;3.10;2.10;;;18.10;85.90;;;18.53;52.64;99510.69;4980521;28;124352;-73
2022/10/06 01:45:38;;;;;;;2.17;1.63;;;18.10;86.00;;;18.50;52.66;99511.38;4978802;28;119674;-74
2022/10/06 01:48:07;;;;;;;2.60;2.20;;;18.10;86.10;;;18.50;52.84;99522.59;4976186;28;119313;-76
2022/10/06 01:50:34;;;;;;;3.97;2.57;;;18.10;86.30;;;18.46;52.86;99518.88;4976181;28;124566;-75
2022/10/06 01:53:01;;;;;;;3.93;2.33;;;18.10;86.30;;;18.46;52.87;99529.25;4970182;28;124441;-74
2022/10/06 01:55:27;;;;;;;2.63;1.83;;;18.00;86.40;;;18.45;53.10;99527.59;4980681;28;119392;-74
2022/10/06 01:57:54;;;;;;;4.00;1.90;;;18.00;86.50;;;18.42;53.11;99531.09;4974434;28;119022;-74
2022/10/06 02:00:21;;;;;;;3.00;2.13;;;18.00;86.70;;;18.39;53.12;99538.19;4983477;28;124130;-75
2022/10/06 02:02:49;;;;;;;3.10;1.97;;;18.00;86.80;;;18.38;53.36;99527.38;4971079;28;122982;-75
2022/10/06 02:05:16;;;;;;;2.90;2.20;;;18.00;86.90;;;18.35;53.37;99540.06;4972901;28;119053;-73
2022/10/06 02:07:42;;;;;;;4.57;2.90;;;17.90;86.90;;;18.32;53.50;99537.94;4983278;28;119061;-73
2022/10/06 02:10:09;;;;;;;2.83;2.13;;;17.90;87.00;;;18.29;53.47;99533.03;4971690;28;123988;-75
2022/10/06 02:12:35;;;;;;;3.40;1.97;;;17.90;87.10;;;18.27;53.54;99535.38;4982724;28;123823;-75
2022/10/06 02:15:03;;;;;;;3.17;2.50;;;17.80;87.20;;;18.25;53.72;99532.13;4983622;28;120463;-77
2022/10/06 02:17:30;;;;;;;2.77;1.90;;;17.80;87.40;;;18.23;53.81;99537.22;4983023;28;119363;-77
2022/10/06 02:19:56;;;;;;;8.70;2.30;;;18.30;87.90;;;18.23;53.70;99542.81;4973582;28;124092;-77
2022/10/06 02:22:23;;;;;;;2.63;2.00;;;17.80;87.60;;;18.21;53.96;99545.13;4980270;28;124321;-76
2022/10/06 02:24:49;;;;;;;3.43;1.93;;;17.70;87.70;;;18.17;53.93;99545.03;4980155;28;119300;-73
2022/10/06 02:27:16;;;;;;;2.53;2.10;;;17.70;87.80;;;18.16;54.01;99545.34;4967092;28;119077;-75
2022/10/06 02:29:43;;;;;;;3.97;2.37;;;17.70;87.90;;;18.15;53.85;99552.13;4978053;28;124054;-75
2022/10/06 02:32:10;;;;;;;3.83;2.10;;;17.70;88.00;;;18.14;54.05;99556.09;4982145;28;123863;-74
2022/10/06 02:34:36;;;;;;;5.17;2.10;;;17.70;88.10;;;18.10;54.15;99559.56;4979863;28;119628;-72
2022/10/06 02:37:04;;;;;;;2.20;1.93;;;17.70;88.20;;;18.10;54.23;99567.94;4981710;28;118906;-72
2022/10/06 02:39:30;;;;;;;2.80;2.00;;;17.70;88.30;;;18.09;54.09;99571.91;4983060;28;124130;-74
2022/10/06 02:41:57;;;;;;;3.10;2.00;;;17.70;88.40;;;18.08;54.42;99584.28;4974419;28;123674;-74
2022/10/06 02:44:24;;;;;;;2.33;2.13;;;17.60;88.40;;;18.06;54.40;99583.78;4976546;28;119460;-75
2022/10/06 02:46:51;;;;;;;3.70;2.47;;;17.60;88.60;;;18.04;54.34;99585.28;4974086;28;119569;-75
2022/10/06 02:49:17;;;;;;;2.80;2.00;;;17.60;88.70;;;18.02;54.35;99591.22;4984122;28;124687;-73
2022/10/06 02:51:44;;;;;;;3.60;2.20;;;17.60;88.70;;;18.00;54.72;99590.75;4983218;28;123845;-74
2022/10/06 02:54:11;;;;;;;2.63;2.00;;;17.60;88.90;;;17.99;54.57;99596.69;4985475;28;119140;-73
2022/10/06 02:56:38;;;;;;;2.40;2.00;;;17.60;89.00;;;17.96;54.64;99600.97;4977485;28;119044;-73
2022/10/06 02:59:04;;;;;;;2.67;2.10;;;17.60;89.10;;;17.95;54.71;99602.16;4971426;28;124080;-73
2022/10/06 03:01:30;;;;;;;3.10;2.10;;;17.50;89.20;;;17.95;54.66;99604.13;4978284;28;124070;-73
2022/10/06 03:03:57;;;;;;;3.07;2.17;;;17.50;89.30;;;17.93;54.75;99607.25;4978553;28;120328;-73
2022/10/06 03:06:27;;;;;;;3.40;2.10;;;17.50;89.40;;;17.92;54.84;99610.38;4970020;28;120807;-73
2022/10/06 03:08:57;;;;;;;3.47;2.20;;;17.50;89.50;;;17.91;54.76;99608.75;4988134;28;124529;-74
2022/10/06 03:11:36;;;;;;;4.50;2.03;;;17.50;89.40;;;17.91;54.68;99614.34;4984932;28;124039;-74
2022/10/06 03:14:04;;;;;;;3.87;2.33;;;17.60;89.60;;;17.90;54.55;99618.31;4980611;28;119382;-73
2022/10/06 03:16:34;;;;;;;4.10;2.03;;;17.40;89.30;;;17.89;54.62;99631.47;4980441;28;118808;-74
2022/10/06 03:19:02;;;;;;;2.20;2.00;;;17.40;89.30;;;17.87;54.74;99637.41;4984398;28;124102;-76
2022/10/06 03:21:32;;;;;;;7.03;2.40;;;17.40;89.30;;;17.86;54.68;99640.53;4986580;28;124489;-74
2022/10/06 03:24:00;;;;;;;3.00;2.23;;;17.40;89.30;;;17.86;54.74;99652.53;4975042;28;121052;-74
2022/10/06 03:26:35;;;;;;;4.97;2.40;;;17.40;89.50;;;17.85;54.66;99655.69;4984064;28;119126;-73
2022/10/06 03:29:03;;;;;;;4.40;2.40;;;17.40;89.50;;;17.81;54.87;99657.50;4983425;28;124115;-73
2022/10/06 03:31:30;;;;;;;3.10;2.23;;;17.40;89.60;;;17.80;54.98;99662.28;4986625;28;124171;-75
2022/10/06 03:33:56;;;;;;;3.50;2.33;;;17.30;89.50;;;17.77;55.11;99667.72;4982912;28;119334;-73
2022/10/06 03:36:31;;;;;;;4.17;2.50;;;17.30;89.90;;;17.75;55.24;99675.63;4979880;28;119045;-73
2022/10/06 03:38:58;;;;;;;3.33;2.50;;;17.30;89.90;;;17.74;55.19;99672.00;4988620;28;123988;-73
2022/10/06 03:41:36;;;;;;;3.87;2.57;;;17.30;90.00;;;17.72;55.13;99674.31;4988505;28;123389;-73
2022/10/06 03:44:03;;;;;;;4.40;2.50;;;17.30;90.00;;;17.71;55.11;99674.66;4979574;28;119265;-74
2022/10/06 03:46:33;;;;;;;4.40;2.07;;;17.30;90.10;;;17.72;55.13;99681.88;4988849;28;117811;-73
2022/10/06 03:49:00;;;;;;;3.17;2.40;;;17.30;90.10;;;17.71;55.52;99688.66;4990150;28;124176;-74
2022/10/06 03:51:36;;;;;;;2.23;2.03;;;17.30;90.10;;;17.70;55.23;99698.16;4984832;28;124647;-78
2022/10/06 03:54:03;;;;;;;2.27;1.90;;;17.20;90.10;;;17.68;55.32;99706.91;4978723;28;120594;-74
2022/10/06 03:56:33;;;;;;;4.10;2.10;;;17.20;90.20;;;17.67;55.56;99708.84;4985252;28;120313;-74
2022/10/06 03:59:03;;;;;;;4.23;2.70;;;17.20;90.20;;;17.66;55.20;99726.78;4987543;28;124460;-75
2022/10/06 04:01:37;;;;;;;4.10;2.50;;;17.20;90.20;;;17.64;55.46;99717.91;4986486;28;123765;-73
2022/10/06 04:04:04;;;;;;;3.23;2.20;;;17.20;90.30;;;17.63;55.55;99724.69;4986836;28;119353;-74
2022/10/06 04:06:35;;;;;;;3.33;2.07;;;17.20;90.30;;;17.62;55.45;99717.47;4977248;28;118806;-75
2022/10/06 04:09:03;;;;;;;7.30;2.10;;;17.20;90.30;;;17.62;55.44;99725.84;4974234;28;124214;-76
2022/10/06 04:11:34;;;;;;;3.67;2.27;;;17.20;90.30;;;17.63;55.50;99724.69;4985593;28;120977;-73
2022/10/06 04:14:04;;;;;;;5.70;2.93;;;17.20;90.40;;;17.63;55.54;99718.28;4983866;28;119334;-74
2022/10/06 04:16:36;;;;;;;2.73;2.30;;;17.10;90.30;;;17.62;55.43;99725.00;4982777;28;119103;-75
2022/10/06 04:19:06;;;;;;;3.90;2.30;;;17.20;90.40;;;17.62;55.67;99725.84;4982966;28;123997;-73
2022/10/06 04:21:35;;;;;;;3.93;2.50;;;17.20;90.40;;;17.62;55.80;99734.22;4985073;28;123821;-74
2022/10/06 04:24:02;;;;;;;3.67;2.60;;;17.20;90.40;;;17.63;55.59;99738.66;4975546;28;119635;-75
2022/10/06 04:26:36;;;;;;;5.77;3.00;;;17.10;90.50;;;17.62;55.73;99731.44;4981576;28;119037;-78
2022/10/06 04:29:03;;;;;;;3.77;2.47;;;15.90;90.00;;;17.62;55.66;99742.63;4974596;28;124015;-74
2022/10/06 04:31:35;;;;;;;4.00;2.40;;;17.10;90.50;;;17.61;55.60;99740.16;4967832;28;122318;-73
2022/10/06 04:34:04;;;;;;;2.90;2.10;;;17.40;90.60;;;17.59;55.77;99743.25;4971020;28;119580;-75
2022/10/06 04:36:34;;;;;;;6.47;3.10;;;17.10;90.50;;;17.58;55.54;99744.44;4985668;28;119236;-74
2022/10/06 04:39:03;;;;;;;4.00;1.90;;;17.10;90.50;;;17.59;55.73;99743.25;4977063;28;124775;-73
2022/10/06 04:41:36;;;;;;;2.23;2.03;;;17.10;90.60;;;17.59;55.70;99748.03;4973030;28;123126;-73
2022/10/06 04:44:04;;;;;;;6.23;3.57;;;17.10;90.60;;;17.58;55.69;99746.41;4982902;28;122055;-73
2022/10/06 04:46:32;;;;;;;4.93;2.43;;;17.10;90.60;;;17.57;56.02;99753.97;4974581;28;120233;-73
2022/10/06 04:48:59;;;;;;;5.67;2.37;;;17.10;90.60;;;17.58;55.94;99746.41;4983727;28;123992;-74
2022/10/06 04:51:26;;;;;;;7.57;2.50;;;17.10;90.70;;;17.57;56.12;99756.78;4983748;28;123835;-75
2022/10/06 04:53:53;;;;;;;3.43;2.60;;;17.10;90.70;;;17.57;55.77;99756.78;4981565;28;119450;-73
2022/10/06 04:56:28;;;;;;;2.27;2.03;;;17.20;90.80;;;17.57;55.97;99755.94;4982432;28;118987;-75
2022/10/06 04:58:56;;;;;;;4.57;2.53;;;17.10;90.70;;;17.57;55.88;99762.38;4964302;28;123640;-74
2022/10/06 05:01:29;;;;;;;4.90;2.70;;;17.10;90.80;;;17.58;56.13;99758.41;4978432;28;123708;-74
2022/10/06 05:03:58;;;;;;;6.67;2.87;;;17.10;90.80;;;17.59;56.11;99767.59;4968832;28;121083;-74
2022/10/06 05:06:29;;;;;;;5.27;3.30;;;17.20;90.90;;;17.60;56.19;99772.88;4966510;28;119020;-76
2022/10/06 05:09:02;;;;;;;4.67;2.53;;;17.50;91.10;;;17.61;56.06;99780.09;4969647;28;127420;-74
2022/10/06 05:11:29;;;;;;;4.17;2.40;;;17.20;91.00;;;17.62;56.23;99789.28;4980952;28;122903;-75
2022/10/06 05:13:57;;;;;;;6.77;2.40;;;17.10;90.90;;;17.62;56.25;99790.13;4969256;28;119242;-73
2022/10/06 05:16:26;;;;;;;3.67;2.90;;;17.10;91.00;;;17.63;56.19;99783.38;4964959;28;119415;-74
2022/10/06 05:18:53;;;;;;;6.03;3.50;;;17.10;91.00;;;17.65;56.06;99786.66;4977866;28;124176;-74
2022/10/06 05:21:24;;;;;;;4.30;2.80;;;17.10;91.30;;;17.67;56.13;99784.31;4968484;28;124333;-73
2022/10/06 05:23:50;;;;;;;4.53;3.30;;;17.20;91.10;;;17.69;56.36;99799.94;4969755;28;118782;-72
2022/10/06 05:26:21;;;;;;;4.30;3.10;;;17.10;91.10;;;17.70;56.23;99790.41;4959574;28;118503;-72
2022/10/06 05:28:48;;;;;;;6.63;3.10;;;17.20;91.10;;;17.70;56.31;99804.38;4978127;28;124046;-74
2022/10/06 05:31:22;;;;;;;5.03;2.97;;;17.30;91.20;;;17.72;56.39;99805.69;4970515;28;124006;-75
2022/10/06 05:33:49;;;;;;;4.73;3.20;;;17.20;91.20;;;17.74;57.28;99806.19;4971232;28;120380;-74
2022/10/06 05:36:21;;;;;;;9.97;3.13;;;17.20;91.50;;;17.78;57.09;99806.31;4976524;28;119557;-75
2022/10/06 05:38:48;;;;;;;5.60;3.63;;;17.20;91.60;;;17.79;57.05;99814.41;4966814;28;124031;-74
2022/10/06 05:41:22;;;;;;;5.70;2.80;;;17.20;91.90;;;17.80;56.79;99820.81;4968631;28;124129;-76
2022/10/06 05:43:50;;;;;;;8.30;3.20;;;17.20;91.50;;;17.82;56.59;99824.91;4966703;28;119344;-74
2022/10/06 05:46:31;;;;;;;5.83;3.50;;;17.30;91.50;;;17.82;56.67;99818.50;4957618;28;118540;-73
2022/10/06 05:49:02;;;;;;;5.10;3.10;;;17.30;91.50;;;17.83;56.52;99826.53;4973508;28;124081;-73
2022/10/06 05:51:32;;;;;;;6.17;2.70;;;17.30;91.40;;;17.83;56.37;99825.72;4966996;28;124370;-75
2022/10/06 05:53:59;;;;;;;4.37;2.90;;;17.30;91.40;;;17.84;56.33;99832.97;4964435;28;119324;-75
2022/10/06 05:56:28;;;;;;;6.00;3.40;;;17.30;91.40;;;17.85;56.57;99826.22;4966676;28;119096;-75
2022/10/06 05:58:57;;;;;;;10.43;3.20;;;17.40;91.70;;;17.87;56.33;99837.91;4973123;28;124173;-76
2022/10/06 06:01:28;;;;;;;3.80;2.73;;;17.30;91.40;;;17.88;56.26;99831.13;4996007;28;122569;-75
2022/10/06 06:04:02;;;;;;;5.40;2.97;;;17.40;91.40;;;17.90;56.39;99848.41;4974045;28;118509;-77
2022/10/06 06:06:34;;;;;;;3.87;2.97;;;17.40;91.40;;;17.92;56.42;99846.09;4965254;28;119558;-74
2022/10/06 06:09:13;;;;;;;4.30;3.00;;;17.40;91.40;;;17.95;56.37;99851.00;4968324;28;125021;-72
2022/10/06 06:11:43;;;;;;;3.33;2.70;;;17.40;91.50;;;17.96;56.42;99851.81;4969705;28;124234;-74
2022/10/06 06:14:14;;;;;;;6.10;3.03;;;17.40;91.50;;;17.97;56.24;99865.44;4965459;28;119455;-73
2022/10/06 06:16:42;;;;;;;4.70;2.67;;;17.40;91.50;;;18.00;56.24;99862.00;4965927;28;119028;-72
2022/10/06 06:19:11;;;;;;;6.20;2.60;;;17.40;91.50;;;18.01;56.39;99860.03;4983157;28;125053;-76
2022/10/06 06:21:39;;;;;;;8.30;3.07;;;17.50;91.50;;;18.03;56.43;99864.13;4966101;28;98508;-72
2022/10/06 06:24:06;;;;;;;4.90;3.00;;;17.50;91.50;;;18.05;56.32;99873.00;4980822;28;120467;-75
2022/10/06 06:26:35;;;;;;;5.20;3.30;;;17.50;91.50;;;18.06;56.37;99874.63;4977368;28;120090;-77
2022/10/06 06:29:04;;;;;;;6.27;3.80;;;17.50;91.60;;;18.08;56.25;99875.13;4984362;28;124096;-74
2022/10/06 06:31:33;;;;;;;5.10;3.30;;;17.50;91.50;;;18.08;56.24;99872.34;4967479;28;124085;-75
2022/10/06 06:34:03;;;;;;;3.67;2.90;;;17.50;91.50;;;18.10;56.40;99883.16;4987835;28;120233;-76
2022/10/06 06:36:36;;;;;;;3.67;2.80;;;17.50;91.50;;;18.13;56.29;99895.66;4979752;28;120626;-74
2022/10/06 06:39:08;;;;;;;3.77;2.57;;;17.50;91.50;;;18.13;56.20;99896.47;4976369;28;123900;-72
2022/10/06 06:41:41;;;;;;;8.90;3.47;;;17.60;91.50;;;18.17;56.07;99897.47;4980662;28;122927;-74
2022/10/06 06:44:10;;;;;;;6.83;3.67;;;17.60;91.60;;;18.19;56.32;99891.50;4979695;28;119711;-73
2022/10/06 06:46:38;;;;;;;9.20;3.60;;;17.70;91.60;;;18.19;56.15;99897.94;4979203;28;119051;-73
2022/10/06 06:49:05;;;;;;;18.13;4.17;;;17.60;91.70;;;18.21;56.26;99903.19;4983557;28;124044;-72
2022/10/06 06:51:35;;;;;;;11.47;4.93;;;17.60;91.60;;;18.22;56.32;99908.47;4974503;28;122839;-72
2022/10/06 06:54:03;;;;;;;6.70;3.70;;;17.70;91.60;;;18.24;56.47;99910.91;4983078;28;119099;-72
2022/10/06 06:56:33;;;;;;;7.80;3.33;;;17.60;91.60;;;18.25;56.36;99918.97;4982863;28;119049;-72
2022/10/06 06:59:02;;;;;;;10.80;3.87;;;17.70;91.70;;;18.27;56.30;99922.25;4980273;28;125573;-71
2022/10/06 07:01:29;;;;;;;11.20;4.43;;;17.70;91.70;;;18.29;56.34;99925.53;4963015;28;123117;-72
2022/10/06 07:04:00;;;;;;;7.30;3.47;;;17.70;91.70;;;18.31;56.32;99937.22;4974653;28;121746;-72
2022/10/06 07:06:29;;;;;;;19.77;4.50;;;17.80;91.70;;;18.30;56.22;99934.75;4980568;28;119410;-72
2022/10/06 07:08:57;;;;;;;8.80;3.90;;;17.70;91.60;;;18.28;56.38;99943.47;4977166;28;123745;-73
2022/10/06 07:11:37;;;;;;;8.93;3.93;;;17.70;91.70;;;18.30;56.60;99940.34;4982217;28;123809;-73
2022/10/06 07:14:11;;;;;;;13.67;5.33;;;17.70;91.80;;;18.31;56.64;99953.19;4977390;28;120793;-74
2022/10/06 07:25:06;;;;;;;8.07;4.70;;;17.80;91.90;;;18.37;56.36;99957.41;4970096;28;119934;-74
2022/10/06 07:27:40;;;;;;;5.23;2.90;;;17.80;91.90;;;18.40;56.73;99962.34;4964530;28;119712;-75
2022/10/06 07:30:12;;;;;;;6.90;3.67;;;17.80;92.00;;;18.41;56.84;99958.41;4970698;28;124080;-75
2022/10/06 07:32:41;;;;;;;3.10;2.20;;;17.90;92.10;;;18.44;57.01;99954.94;4977724;28;124014;-74
2022/10/06 07:35:08;;;;;;;4.47;2.00;;;17.90;92.10;;;18.47;57.03;99965.44;4984373;28;118792;-72
2022/10/06 07:37:34;;;;;;;2.77;2.10;;;18.00;92.20;;;18.50;57.00;99978.75;4978357;28;119178;-76
2022/10/06 07:40:03;;;;;;;7.03;2.40;;;17.90;92.10;;;18.52;56.87;99976.44;4982950;28;124155;-76
2022/10/06 07:42:29;;;;;;;2.73;2.07;;;17.90;92.10;;;18.55;56.68;99975.78;4981826;28;123997;-71
2022/10/06 07:47:41;;;;;;;6.53;2.20;;;18.00;92.10;;;18.59;56.64;99981.53;4977984;28;120392;-76
2022/10/06 07:50:08;;;;;;;6.13;2.00;;;18.00;92.10;;;18.62;56.68;99992.06;4980091;28;124108;-72
2022/10/06 07:52:38;;;;;;;3.93;1.83;;;18.10;92.10;;;18.67;56.71;99985.44;4983807;28;124379;-72
2022/10/06 07:55:07;;;;;;;4.00;2.00;;;18.10;92.10;;;18.72;56.53;99990.84;4980564;28;119192;-73
2022/10/06 07:57:34;;;;;;;5.43;1.90;;;18.20;92.10;;;18.76;56.29;99989.84;4979539;28;119102;-72
2022/10/06 08:00:06;;;;;;;5.97;1.97;;;18.20;92.00;;;18.80;55.96;99983.56;4986129;28;124384;-72
2022/10/06 08:02:32;;;;;;;3.47;1.77;;;18.20;91.90;;;18.83;55.96;99989.31;4980901;28;123924;-74
2022/10/06 08:04:59;;;;;;;5.20;1.93;;;18.20;91.80;;;18.89;55.85;99995.56;4977501;28;120294;-72
2022/10/06 08:07:25;;;;;;;10.30;2.03;;;18.30;91.80;;;18.91;55.41;99994.06;4969600;28;119714;-73
2022/10/06 08:09:52;;;;;;;3.73;1.93;;;18.30;91.70;;;18.94;55.32;99998.13;4967772;28;124617;-71
2022/10/06 08:12:36;;;;;;;5.10;2.20;;;18.30;91.60;;;18.95;55.41;99999.81;4984916;28;124057;-72
2022/10/06 08:15:07;;;;;;;5.93;2.23;;;18.40;91.50;;;18.93;55.18;100005.72;4987773;28;118929;-74
2022/10/06 08:17:35;;;;;;;2.67;2.27;;;18.40;91.40;;;18.93;55.17;100008.53;4980471;28;118839;-73
2022/10/06 08:20:04;;;;;;;3.97;1.77;;;18.40;91.30;;;18.93;55.19;100008.53;4969136;28;124432;-73
2022/10/06 08:22:31;;;;;;;2.07;1.57;;;18.40;91.30;;;18.95;54.95;100011.00;4976278;28;123968;-73
2022/10/06 08:24:58;;;;;;;3.77;1.80;;;18.40;91.20;;;18.95;54.90;100014.63;4966772;28;119421;-73
2022/10/06 08:27:27;;;;;;;3.57;1.90;;;18.40;91.20;;;18.95;54.50;100017.41;4981948;28;119005;-73
2022/10/06 08:29:55;;;;;;;4.13;1.50;;;18.40;91.00;;;18.95;54.69;100027.81;4974880;28;125665;-73
2022/10/06 08:32:23;;;;;;;4.57;1.57;;;18.40;91.30;;;18.98;54.61;100032.72;4979533;28;123758;-72
2022/10/06 08:34:50;;;;;;;3.73;2.10;;;18.40;90.90;;;19.03;54.33;100034.53;4983012;28;119284;-73
2022/10/06 08:37:25;;;;;;;8.30;1.80;;;18.50;90.90;;;19.06;54.20;100029.06;4981894;28;119291;-72
2022/10/06 08:39:53;;;;;;;3.83;1.87;;;18.50;90.80;;;19.05;53.93;100043.38;4981108;28;124503;-75
2022/10/06 08:42:42;;;;;;;4.40;2.13;;;18.50;90.60;;;19.08;53.59;100042.72;4984527;28;123702;-73
2022/10/06 08:45:23;;;;;;;4.10;1.87;;;18.50;90.50;;;19.09;53.33;100039.56;4971969;28;119019;-72
2022/10/06 08:48:02;;;;;;;4.13;1.80;;;18.60;90.40;;;19.11;52.90;100042.06;4981911;28;119364;-73
2022/10/06 08:50:37;;;;;;;2.40;1.60;;;18.60;90.20;;;19.10;52.91;100041.25;4982378;28;124113;-73
2022/10/06 08:53:23;;;;;;;2.90;1.57;;;18.60;90.00;;;19.11;52.89;100042.06;4982074;28;124049;-74
2022/10/06 08:55:59;;;;;;;4.43;1.40;;;18.60;90.00;;;19.15;52.79;100043.00;4988052;28;120981;-73
2022/10/06 08:58:49;;;;;;;3.60;1.53;;;18.60;90.00;;;19.18;52.78;100050.72;4972484;28;120342;-74
2022/10/06 09:01:23;;;;;;;4.80;1.87;;;18.60;89.90;;;19.21;52.42;100058.47;4983344;28;124416;-73
2022/10/06 09:04:00;;;;;;;2.90;1.50;;;18.70;89.60;;;19.24;52.23;100056.97;4965537;28;121764;-73
2022/10/06 09:06:42;;;;;;;2.63;1.53;;;18.70;89.30;;;19.23;51.84;100050.53;4973403;28;119777;-85
2022/10/06 09:09:54;;;;;;;3.43;1.80;;;18.70;89.00;;;19.17;51.47;100052.72;4983079;28;119438;-72
2022/10/06 09:12:34;;;;;;;2.80;1.40;;;18.70;88.10;;;19.15;51.49;100054.19;4968983;28;124203;-73
2022/10/06 09:15:34;;;;;;;5.43;1.80;;;18.60;88.10;;;19.14;51.35;100059.00;4970169;28;123864;-73
2022/10/06 09:18:18;;;;;;;2.70;1.33;;;18.60;87.90;;;19.14;51.23;100056.19;4979883;28;119281;-74
2022/10/06 09:21:03;;;;;;;3.40;1.53;;;18.60;87.70;;;19.12;51.13;100072.50;4968362;28;119862;-72
2022/10/06 09:23:48;;;;;;;4.07;1.50;;;18.60;87.60;;;19.12;51.17;100066.09;4976739;28;123609;-73
2022/10/06 09:26:31;;;;;;;1.47;1.00;;;18.60;87.50;;;19.13;51.20;100070.56;4970072;28;124028;-73
2022/10/06 09:28:58;;;;;;;6.00;1.40;;;18.60;87.60;;;19.14;51.21;100067.41;4964401;28;119265;-74
2022/10/06 09:31:33;;;;;;;3.10;1.50;;;18.60;87.70;;;19.17;51.36;100069.53;4968957;28;119458;-72
2022/10/06 09:34:33;;;;;;;2.60;1.77;;;18.60;87.60;;;19.19;51.41;100064.41;4981228;28;126876;-73
2022/10/06 09:37:03;;;;;;;4.80;2.03;;;18.70;87.70;;;19.22;50.73;100076.91;4967841;28;124440;-71
2022/10/06 09:39:37;;;;;;;4.00;1.63;;;18.70;87.30;;;19.24;51.05;100069.00;4975891;28;119318;-73
2022/10/06 09:42:19;;;;;;;3.93;1.60;;;18.90;87.30;;;19.25;50.84;100078.22;4979200;28;119053;-72
2022/10/06 09:44:56;;;;;;;3.77;1.67;;;18.70;86.90;;;19.29;50.88;100081.97;4973579;28;122282;-74
2022/10/06 09:47:32;;;;;;;3.47;1.37;;;18.80;87.00;;;19.33;50.72;100083.75;4965603;28;122899;-72
2022/10/06 09:50:24;;;;;;;3.53;1.67;;;18.80;87.00;;;19.35;50.70;100081.44;4975850;28;121014;-72
2022/10/06 09:52:59;;;;;;;3.43;1.40;;;18.80;87.00;;;19.39;50.95;100088.00;4951486;28;118934;-71
2022/10/06 09:55:50;;;;;;;4.90;1.50;;;18.80;87.00;;;19.41;50.91;100091.28;4972265;28;123153;-71
2022/10/06 09:58:33;;;;;;;4.80;1.80;;;18.90;87.20;;;19.45;50.90;100096.22;4970578;28;123746;-73
2022/10/06 10:01:01;;;;;;;3.47;1.67;;;18.90;87.20;;;19.43;51.14;100094.56;4973640;28;121578;-70
2022/10/06 10:03:51;;;;;;;3.17;1.57;;;18.80;87.30;;;19.45;51.25;100097.06;4975876;28;119084;-73
2022/10/06 10:06:33;;;;;;;3.73;2.10;;;18.80;87.50;;;19.49;51.23;100091.56;4966037;28;124777;-70
2022/10/06 10:09:20;;;;;;;4.27;1.47;;;18.90;87.60;;;19.52;51.08;100097.31;4975973;28;124455;-72
2022/10/06 10:12:28;;;;;;;5.27;1.70;;;18.90;87.50;;;19.51;51.17;100100.47;4966179;28;119164;-73
2022/10/06 10:15:23;;;;;;;6.20;1.90;;;19.00;87.40;;;19.50;51.22;100093.22;4957241;28;119218;-71
2022/10/06 10:17:55;;;;;;;3.30;1.70;;;19.00;87.50;;;19.52;51.03;100102.09;4972851;28;124336;-71
2022/10/06 10:20:33;;;;;;;4.37;1.50;;;19.00;87.50;;;19.55;50.83;100096.63;4972006;28;124426;-76
2022/10/06 10:23:32;;;;;;;3.87;1.53;;;19.00;87.10;;;19.55;50.89;100101.41;4968476;28;118893;-72
2022/10/06 10:26:40;;;;;;;3.43;1.83;;;19.00;86.90;;;19.54;50.66;100089.38;4968790;28;119159;-72
2022/10/06 10:29:42;;;;;;;5.47;1.40;;;19.10;86.60;;;19.54;50.45;100088.56;4975956;28;124433;-73
2022/10/06 10:32:50;;;;;;;5.07;1.50;;;19.00;86.30;;;19.61;50.20;100084.06;4959575;28;122927;-72
2022/10/06 10:35:40;;;;;;;14.07;1.70;;;19.00;86.10;;;19.70;49.29;100086.84;4983140;28;119530;-73
2022/10/06 10:38:19;;;;;;;2.83;1.53;;;19.10;85.40;;;19.77;49.37;100070.28;4992778;28;119159;-73
2022/10/06 10:40:54;;;;;;;8.40;1.53;;;19.10;85.30;;;19.88;49.49;100081.06;4967282;28;124706;-74